createdAt,value
2023-05-15T00:01:39.000Z,9.67
2023-05-15T00:04:05.829Z,9.58
2023-05-15T00:06:32.818Z,9.53
2023-05-15T00:08:59.649Z,9.52
2023-05-15T00:11:28.161Z,9.33
2023-05-15T00:13:55.062Z,9.53
2023-05-15T00:16:22.095Z,9.49
2023-05-15T00:18:52.310Z,9.47
2023-05-15T00:21:19.206Z,9.53
2023-05-15T00:23:47.741Z,9.50
2023-05-15T00:26:15.979Z,8.95
2023-05-15T00:28:42.912Z,9.32
2023-05-15T00:31:09.886Z,9.22
2023-05-15T00:33:36.867Z,9.35
2023-05-15T00:36:03.830Z,9.35
2023-05-15T00:38:31.272Z,9.22
2023-05-15T00:40:58.408Z,9.23
2023-05-15T00:43:26.716Z,9.17
2023-05-15T00:45:54.250Z,9.25
2023-05-15T00:48:22.928Z,9.40
2023-05-15T00:50:51.924Z,9.51
2023-05-15T00:53:19.137Z,9.19
2023-05-15T00:55:47.237Z,9.32
2023-05-15T00:58:15.577Z,9.20
2023-05-15T01:00:47.300Z,9.24
2023-05-15T01:03:14.346Z,9.23
2023-05-15T01:05:41.308Z,8.98
2023-05-15T01:08:21.910Z,9.45
2023-05-15T01:10:52.284Z,9.60
2023-05-15T01:13:23.537Z,9.53
2023-05-15T01:15:50.729Z,9.48
2023-05-15T01:18:17.733Z,9.44
2023-05-15T01:20:57.265Z,9.67
2023-05-15T01:24:04.613Z,9.65
2023-05-15T01:26:53.344Z,9.78
2023-05-15T01:29:41.593Z,9.68
2023-05-15T01:32:37.769Z,9.51
2023-05-15T01:35:21.614Z,9.52
2023-05-15T01:37:55.217Z,9.57
2023-05-15T01:40:26.403Z,9.61
2023-05-15T01:43:01.616Z,9.69
2023-05-15T01:45:29.560Z,9.68
2023-05-15T01:47:59.511Z,9.66
2023-05-15T01:50:28.494Z,9.66
2023-05-15T01:52:58.982Z,9.56
2023-05-15T01:55:28.131Z,9.40
2023-05-15T01:57:56.933Z,9.50
2023-05-15T02:00:23.922Z,9.47
2023-05-15T02:02:53.428Z,9.46
2023-05-15T02:05:20.931Z,9.48
2023-05-15T02:07:49.439Z,9.39
2023-05-15T02:10:18.557Z,9.40
2023-05-15T02:12:49.719Z,9.37
2023-05-15T02:15:18.406Z,9.34
2023-05-15T02:17:47.016Z,8.72
2023-05-15T02:20:14.615Z,9.19
2023-05-15T02:22:41.552Z,9.19
2023-05-15T02:25:08.818Z,9.25
2023-05-15T02:27:54.045Z,9.23
2023-05-15T02:30:35.182Z,9.29
2023-05-15T02:33:23.741Z,9.28
2023-05-15T02:36:02.643Z,9.12
2023-05-15T02:38:52.302Z,9.48
2023-05-15T02:41:20.031Z,9.30
2023-05-15T02:43:50.643Z,9.73
2023-05-15T02:46:19.967Z,9.69
2023-05-15T02:48:48.512Z,9.85
2023-05-15T02:51:15.483Z,9.67
2023-05-15T02:53:42.800Z,9.59
2023-05-15T02:56:09.805Z,9.50
2023-05-15T02:58:38.052Z,9.47
2023-05-15T03:01:05.013Z,9.24
2023-05-15T03:03:32.041Z,9.24
2023-05-15T03:06:01.168Z,9.32
2023-05-15T03:08:28.878Z,9.67
2023-05-15T03:10:55.856Z,9.53
2023-05-15T03:13:22.762Z,9.52
2023-05-15T03:15:49.684Z,9.52
2023-05-15T03:18:19.132Z,9.30
2023-05-15T03:20:47.940Z,9.27
2023-05-15T03:23:14.836Z,9.30
2023-05-15T03:25:41.732Z,9.27
2023-05-15T03:28:08.598Z,9.19
2023-05-15T03:30:35.465Z,8.97
2023-05-15T03:33:04.208Z,9.39
2023-05-15T03:35:32.552Z,9.44
2023-05-15T03:37:59.593Z,9.37
2023-05-15T03:40:26.490Z,9.34
2023-05-15T03:42:53.773Z,9.33
2023-05-15T03:45:21.530Z,9.29
2023-05-15T03:47:49.070Z,9.20
2023-05-15T03:50:16.471Z,8.96
2023-05-15T03:52:43.442Z,8.90
2023-05-15T03:55:10.560Z,8.95
2023-05-15T03:57:37.524Z,8.88
2023-05-15T04:00:10.309Z,9.06
2023-05-15T04:02:41.355Z,8.83
2023-05-15T04:05:08.886Z,8.91
2023-05-15T04:07:37.016Z,8.95
2023-05-15T04:10:04.320Z,8.76
2023-05-15T04:12:33.648Z,8.97
2023-05-15T04:15:20.606Z,8.71
2023-05-15T04:17:49.593Z,8.88
2023-05-15T04:20:21.118Z,8.90
2023-05-15T04:22:48.485Z,8.86
2023-05-15T04:25:16.487Z,8.86
2023-05-15T04:27:43.950Z,8.85
2023-05-15T04:30:11.703Z,8.88
2023-05-15T04:32:39.781Z,8.74
2023-05-15T04:35:12.469Z,8.94
2023-05-15T04:37:40.396Z,9.00
2023-05-15T04:40:08.389Z,8.94
2023-05-15T04:42:38.585Z,8.65
2023-05-15T04:45:07.265Z,9.05
2023-05-15T04:47:34.462Z,9.14
2023-05-15T04:50:01.392Z,8.66
2023-05-15T04:52:28.321Z,8.95
2023-05-15T04:54:56.276Z,8.97
2023-05-15T04:57:23.553Z,9.23
2023-05-15T04:59:50.492Z,9.14
2023-05-15T05:02:21.782Z,9.41
2023-05-15T05:04:48.776Z,9.32
2023-05-15T05:07:15.971Z,9.28
2023-05-15T05:09:43.245Z,9.38
2023-05-15T05:12:10.756Z,9.61
2023-05-15T05:14:37.774Z,9.67
2023-05-15T05:17:04.868Z,9.99
2023-05-15T05:19:31.736Z,10.13
2023-05-15T05:22:01.559Z,10.44
2023-05-15T05:24:28.788Z,10.18
2023-05-15T05:26:58.311Z,10.43
2023-05-15T05:29:25.514Z,10.46
2023-05-15T05:31:52.838Z,10.48
2023-05-15T05:34:20.607Z,10.66
2023-05-15T05:36:47.666Z,11.17
2023-05-15T05:39:16.841Z,10.78
2023-05-15T05:41:44.086Z,10.67
2023-05-15T05:44:11.264Z,10.55
2023-05-15T05:46:38.177Z,10.74
2023-05-15T05:49:05.104Z,10.91
2023-05-15T05:51:32.386Z,10.77
2023-05-15T05:53:59.195Z,11.23
2023-05-15T05:56:26.787Z,11.61
2023-05-15T05:58:53.978Z,11.76
2023-05-15T06:01:21.318Z,12.21
2023-05-15T06:03:48.613Z,12.83
2023-05-15T06:06:15.560Z,12.80
2023-05-15T06:08:42.411Z,13.18
2023-05-15T06:11:09.255Z,12.75
2023-05-15T06:13:36.190Z,12.81
2023-05-15T06:16:03.039Z,12.50
2023-05-15T06:18:30.025Z,12.53
2023-05-15T06:20:59.030Z,12.68
2023-05-15T06:23:28.983Z,12.91
2023-05-15T06:25:55.914Z,13.09
2023-05-15T06:28:22.859Z,13.30
2023-05-15T06:30:49.787Z,13.42
2023-05-15T06:33:16.703Z,13.38
2023-05-15T06:35:43.772Z,13.35
2023-05-15T06:38:11.002Z,13.10
2023-05-15T06:40:37.844Z,13.37
2023-05-15T06:43:04.777Z,13.36
2023-05-15T06:45:31.682Z,13.55
2023-05-15T06:48:01.430Z,13.19
2023-05-15T06:50:28.812Z,13.37
2023-05-15T06:52:55.696Z,13.59
2023-05-15T06:55:22.599Z,14.00
2023-05-15T06:57:49.653Z,13.82
2023-05-15T07:00:16.918Z,13.86
2023-05-15T07:02:44.140Z,13.93
2023-05-15T07:05:11.841Z,13.87
2023-05-15T07:07:38.731Z,14.20
2023-05-15T07:10:06.334Z,14.34
2023-05-15T07:12:34.383Z,14.49
2023-05-15T07:15:01.277Z,14.18
2023-05-15T07:17:28.215Z,13.57
2023-05-15T07:19:55.218Z,13.67
2023-05-15T07:22:22.165Z,13.71
2023-05-15T07:24:49.048Z,13.83
2023-05-15T07:27:15.927Z,14.15
2023-05-15T07:29:42.777Z,14.45
2023-05-15T07:32:09.641Z,14.77
2023-05-15T07:34:36.481Z,14.50
2023-05-15T07:37:03.381Z,14.82
2023-05-15T07:39:30.335Z,14.96
2023-05-15T07:41:57.191Z,14.82
2023-05-15T07:44:24.031Z,14.76
2023-05-15T07:46:50.932Z,14.84
2023-05-15T07:49:17.780Z,14.57
2023-05-15T07:51:44.628Z,15.60
2023-05-15T07:54:11.468Z,15.77
2023-05-15T07:56:39.272Z,16.27
2023-05-15T07:59:06.137Z,16.80
2023-05-15T08:01:33.117Z,16.65
2023-05-15T08:04:00.578Z,15.91
2023-05-15T08:06:27.564Z,16.74
2023-05-15T08:08:54.492Z,16.65
2023-05-15T08:11:22.181Z,16.24
2023-05-15T08:13:49.095Z,15.76
2023-05-15T08:16:16.227Z,16.07
2023-05-15T08:18:43.126Z,16.24
2023-05-15T08:21:10.136Z,16.19
2023-05-15T08:23:37.089Z,16.66
2023-05-15T08:26:03.999Z,16.82
2023-05-15T08:28:30.851Z,16.29
2023-05-15T08:30:57.715Z,16.72
2023-05-15T08:33:24.632Z,16.37
2023-05-15T08:35:52.180Z,16.98
2023-05-15T08:38:19.043Z,17.19
2023-05-15T08:40:47.669Z,16.26
2023-05-15T08:43:17.745Z,16.43
2023-05-15T08:45:44.596Z,16.25
2023-05-15T08:48:17.362Z,15.70
2023-05-15T08:50:44.560Z,16.23
2023-05-15T08:53:13.487Z,16.50
2023-05-15T08:55:40.868Z,16.50
2023-05-15T08:58:08.399Z,15.86
2023-05-15T09:00:35.352Z,15.60
2023-05-15T09:03:02.356Z,15.63
2023-05-15T09:05:30.570Z,16.95
2023-05-15T09:07:59.980Z,16.60
2023-05-15T09:10:26.884Z,17.24
2023-05-15T09:12:54.994Z,18.04
2023-05-15T09:15:25.797Z,17.79
2023-05-15T09:17:53.020Z,16.64
2023-05-15T09:20:37.753Z,16.97
2023-05-15T09:23:06.492Z,17.40
2023-05-15T09:25:41.827Z,16.83
2023-05-15T09:28:11.441Z,17.29
2023-05-15T09:30:39.378Z,16.96
2023-05-15T09:33:06.395Z,16.53
2023-05-15T09:35:35.191Z,16.39
2023-05-15T09:38:03.822Z,16.62
2023-05-15T09:40:32.302Z,16.16
2023-05-15T09:42:59.941Z,16.20
2023-05-15T09:45:30.380Z,16.36
2023-05-15T09:48:00.249Z,16.81
2023-05-15T09:50:34.439Z,17.56
2023-05-15T09:53:01.666Z,16.95
2023-05-15T09:55:31.471Z,17.42
2023-05-15T09:58:15.653Z,17.44
2023-05-15T10:00:47.980Z,17.54
2023-05-15T10:03:19.073Z,18.06
2023-05-15T10:05:46.460Z,17.72
2023-05-15T10:08:15.100Z,17.38
2023-05-15T10:10:42.735Z,16.26
2023-05-15T10:13:10.638Z,16.99
2023-05-15T10:15:39.196Z,17.49
2023-05-15T10:18:07.486Z,17.00
2023-05-15T10:20:36.108Z,17.16
2023-05-15T10:23:06.689Z,16.71
2023-05-15T10:25:36.213Z,17.36
2023-05-15T10:28:03.610Z,18.06
2023-05-15T10:30:32.463Z,17.54
2023-05-15T10:33:01.009Z,16.67
2023-05-15T10:35:28.824Z,16.45
2023-05-15T10:37:57.167Z,16.36
2023-05-15T10:40:24.910Z,16.39
2023-05-15T10:42:52.091Z,16.38
2023-05-15T10:45:19.660Z,17.58
2023-05-15T10:47:47.161Z,17.70
2023-05-15T10:50:14.611Z,17.91
2023-05-15T10:52:42.475Z,18.31
2023-05-15T10:55:13.807Z,19.16
2023-05-15T10:57:41.236Z,19.27
2023-05-15T11:00:34.401Z,17.61
2023-05-15T11:03:02.330Z,17.50
2023-05-15T11:05:31.259Z,17.68
2023-05-15T11:08:18.041Z,18.57
2023-05-15T11:10:45.296Z,18.45
2023-05-15T11:13:12.344Z,17.35
2023-05-15T11:15:44.238Z,17.00
2023-05-15T11:18:11.436Z,17.17
2023-05-15T11:20:54.816Z,17.13
2023-05-15T11:23:23.034Z,17.14
2023-05-15T11:25:54.990Z,18.55
2023-05-15T11:28:23.655Z,18.63
2023-05-15T11:30:59.596Z,16.61
2023-05-15T11:33:29.798Z,15.74
2023-05-15T11:36:00.834Z,15.87
2023-05-15T11:38:27.715Z,15.05
2023-05-15T11:41:03.099Z,14.97
2023-05-15T11:43:31.974Z,15.05
2023-05-15T11:46:00.235Z,15.16
2023-05-15T11:48:39.400Z,15.17
2023-05-15T11:51:30.941Z,14.66
2023-05-15T11:53:58.392Z,14.89
2023-05-15T11:56:30.052Z,14.93
2023-05-15T11:59:04.262Z,14.88
2023-05-15T12:01:47.546Z,16.22
2023-05-15T12:04:15.886Z,15.91
2023-05-15T12:06:44.847Z,15.97
2023-05-15T12:09:19.696Z,16.66
2023-05-15T12:11:56.282Z,17.07
2023-05-15T12:14:30.590Z,17.69
2023-05-15T12:17:04.822Z,17.00
2023-05-15T12:19:33.601Z,17.07
2023-05-15T12:22:00.626Z,17.45
2023-05-15T12:24:27.649Z,16.68
2023-05-15T12:26:56.701Z,16.54
2023-05-15T12:29:26.011Z,16.15
2023-05-15T12:31:54.318Z,16.26
2023-05-15T12:34:22.017Z,16.26
2023-05-15T12:36:49.121Z,15.78
2023-05-15T12:39:16.114Z,15.71
2023-05-15T12:41:46.032Z,16.16
2023-05-15T12:44:20.452Z,15.93
2023-05-15T12:46:48.223Z,16.26
2023-05-15T12:49:21.906Z,16.67
2023-05-15T12:51:49.025Z,17.43
2023-05-15T12:54:20.510Z,18.03
2023-05-15T12:56:48.784Z,18.34
2023-05-15T12:59:15.999Z,18.26
2023-05-15T13:01:42.945Z,18.55
2023-05-15T13:04:10.408Z,19.37
2023-05-15T13:06:46.247Z,18.70
2023-05-15T13:09:14.346Z,18.64
2023-05-15T13:11:45.467Z,18.95
2023-05-15T13:14:17.604Z,18.79
2023-05-15T13:16:47.975Z,19.39
2023-05-15T13:19:16.109Z,19.21
2023-05-15T13:21:44.125Z,19.11
2023-05-15T13:24:11.275Z,18.82
2023-05-15T13:26:38.402Z,19.58
2023-05-15T13:29:05.500Z,19.20
2023-05-15T13:31:32.634Z,19.26
2023-05-15T13:33:59.549Z,19.87
2023-05-15T13:36:26.417Z,19.05
2023-05-15T13:38:53.314Z,18.56
2023-05-15T13:41:20.154Z,18.60
2023-05-15T13:43:49.464Z,18.62
2023-05-15T13:46:16.768Z,18.81
2023-05-15T13:48:43.757Z,19.94
2023-05-15T13:51:10.798Z,19.65
2023-05-15T13:53:37.639Z,19.41
2023-05-15T13:56:04.674Z,19.60
2023-05-15T13:58:31.607Z,20.52
2023-05-15T14:00:59.179Z,20.59
2023-05-15T14:03:26.204Z,20.86
2023-05-15T14:05:53.192Z,20.71
2023-05-15T14:08:20.044Z,19.64
2023-05-15T14:10:47.018Z,20.05
2023-05-15T14:13:13.881Z,19.88
2023-05-15T14:15:40.738Z,20.63
2023-05-15T14:18:07.733Z,20.80
2023-05-15T14:20:34.673Z,21.02
2023-05-15T14:23:01.667Z,21.22
2023-05-15T14:25:28.556Z,21.11
2023-05-15T14:27:55.581Z,20.35
2023-05-15T14:30:23.362Z,21.07
2023-05-15T14:32:50.443Z,20.83
2023-05-15T14:35:17.375Z,18.68
2023-05-15T14:37:44.301Z,18.51
2023-05-15T14:40:11.662Z,18.11
2023-05-15T14:42:41.483Z,17.34
2023-05-15T14:45:08.876Z,18.16
2023-05-15T14:47:35.736Z,17.54
2023-05-15T14:50:02.784Z,18.06
2023-05-15T14:52:29.702Z,18.56
2023-05-15T14:55:08.482Z,18.71
2023-05-15T14:57:36.912Z,18.18
2023-05-15T15:00:06.561Z,18.06
2023-05-15T15:02:33.860Z,17.80
2023-05-15T15:05:01.084Z,17.98
2023-05-15T15:07:30.838Z,18.47
2023-05-15T15:09:57.760Z,18.56
2023-05-15T15:12:24.713Z,18.42
2023-05-15T15:14:51.603Z,17.52
2023-05-15T15:17:18.742Z,17.85
2023-05-15T15:19:45.659Z,17.88
2023-05-15T15:22:12.572Z,17.45
2023-05-15T15:24:39.453Z,17.03
2023-05-15T15:27:07.197Z,17.09
2023-05-15T15:29:34.036Z,17.47
2023-05-15T15:32:01.102Z,17.40
2023-05-15T15:34:28.064Z,16.72
2023-05-15T15:36:54.958Z,17.07
2023-05-15T15:39:21.860Z,16.67
2023-05-15T15:41:48.787Z,16.72
2023-05-15T15:44:15.777Z,16.72
2023-05-15T15:46:42.681Z,16.60
2023-05-15T15:49:09.600Z,17.06
2023-05-15T15:51:36.540Z,16.99
2023-05-15T15:54:03.472Z,17.26
2023-05-15T15:56:30.318Z,17.12
2023-05-15T15:58:57.339Z,17.24
2023-05-15T16:01:24.420Z,17.37
2023-05-15T16:03:51.461Z,17.23
2023-05-15T16:06:18.367Z,17.05
2023-05-15T16:08:45.281Z,17.22
2023-05-15T16:11:12.226Z,17.18
2023-05-15T16:13:40.964Z,17.14
2023-05-15T16:16:08.166Z,17.03
2023-05-15T16:18:35.497Z,16.76
2023-05-15T16:21:02.447Z,16.66
2023-05-15T16:23:33.691Z,17.11
2023-05-15T16:26:00.813Z,17.17
2023-05-15T16:28:27.639Z,17.22
2023-05-15T16:33:22.041Z,17.64
2023-05-15T16:35:48.898Z,17.71
2023-05-15T16:38:16.867Z,17.38
2023-05-15T16:40:43.901Z,17.48
2023-05-15T16:43:10.859Z,17.38
2023-05-15T16:45:37.833Z,17.34
2023-05-15T16:48:05.110Z,17.33
2023-05-15T16:50:33.156Z,17.35
2023-05-15T16:53:00.013Z,17.40
2023-05-15T16:55:27.372Z,17.33
2023-05-15T16:57:54.348Z,17.39
2023-05-15T17:00:21.562Z,17.16
2023-05-15T17:02:49.707Z,17.27
2023-05-15T17:05:16.875Z,17.33
2023-05-15T17:07:44.880Z,17.17
2023-05-15T17:10:12.858Z,17.23
2023-05-15T17:12:39.980Z,17.16
2023-05-15T17:15:07.645Z,17.02
2023-05-15T17:17:34.981Z,17.06
2023-05-15T17:20:02.972Z,16.94
2023-05-15T17:22:30.732Z,16.96
2023-05-15T17:24:57.728Z,16.88
2023-05-15T17:27:24.718Z,16.66
2023-05-15T17:29:51.629Z,16.33
2023-05-15T17:32:19.155Z,16.30
2023-05-15T17:34:46.751Z,16.19
2023-05-15T17:37:13.995Z,16.33
2023-05-15T17:39:41.000Z,16.26
2023-05-15T17:42:07.976Z,15.90
2023-05-15T17:44:34.956Z,15.95
2023-05-15T17:47:01.969Z,16.15
2023-05-15T17:49:29.061Z,16.10
2023-05-15T17:51:56.206Z,16.07
2023-05-15T17:54:23.166Z,15.84
2023-05-15T17:56:50.028Z,16.00
2023-05-15T17:59:17.015Z,15.83
2023-05-15T18:01:44.038Z,15.77
2023-05-15T18:04:11.099Z,15.78
2023-05-15T18:06:38.492Z,15.81
2023-05-15T18:09:05.483Z,15.92
2023-05-15T18:11:32.597Z,15.80
2023-05-15T18:13:59.713Z,15.82
2023-05-15T18:16:27.006Z,15.92
2023-05-15T18:18:54.075Z,15.89
2023-05-15T18:21:21.252Z,15.80
2023-05-15T18:23:48.205Z,15.89
2023-05-15T18:26:15.116Z,15.77
2023-05-15T18:28:42.079Z,15.69
2023-05-15T18:31:09.130Z,15.66
2023-05-15T18:33:36.400Z,15.34
2023-05-15T18:36:05.968Z,15.57
2023-05-15T18:38:34.317Z,15.43
2023-05-15T18:41:01.266Z,14.81
2023-05-15T18:43:28.318Z,14.83
2023-05-15T18:45:55.277Z,14.77
2023-05-15T18:48:22.157Z,14.71
2023-05-15T18:50:49.140Z,14.68
2023-05-15T18:53:16.152Z,14.85
2023-05-15T18:55:43.113Z,14.71
2023-05-15T18:58:10.213Z,14.51
2023-05-15T19:00:38.730Z,14.41
2023-05-15T19:03:07.084Z,14.38
2023-05-15T19:05:34.382Z,13.99
2023-05-15T19:08:02.065Z,14.17
2023-05-15T19:10:29.831Z,14.30
2023-05-15T19:12:57.569Z,13.90
2023-05-15T19:15:25.362Z,14.20
2023-05-15T19:17:52.382Z,14.03
2023-05-15T19:20:19.691Z,13.98
2023-05-15T19:22:46.822Z,13.96
2023-05-15T19:25:13.931Z,13.86
2023-05-15T19:27:40.841Z,13.76
2023-05-15T19:30:09.522Z,13.84
2023-05-15T19:32:36.708Z,13.81
2023-05-15T19:35:03.908Z,13.89
2023-05-15T19:37:30.822Z,13.84
2023-05-15T19:39:57.800Z,13.70
2023-05-15T19:42:24.790Z,13.45
2023-05-15T19:44:51.614Z,13.76
2023-05-15T19:47:18.539Z,13.58
2023-05-15T19:49:45.824Z,13.65
2023-05-15T19:52:12.726Z,13.54
2023-05-15T19:54:39.597Z,13.67
2023-05-15T19:57:06.496Z,13.60
2023-05-15T19:59:33.523Z,13.68
2023-05-15T20:02:01.856Z,13.64
2023-05-15T20:04:29.221Z,13.65
2023-05-15T20:06:56.159Z,13.66
2023-05-15T20:09:22.970Z,13.83
2023-05-15T20:11:49.938Z,13.90
2023-05-15T20:14:16.895Z,13.54
2023-05-15T20:16:43.842Z,13.57
2023-05-15T20:19:11.381Z,13.54
2023-05-15T20:21:39.057Z,13.56
2023-05-15T20:24:07.153Z,13.40
2023-05-15T20:26:36.115Z,13.63
2023-05-15T20:29:03.802Z,13.57
2023-05-15T20:31:30.843Z,13.56
2023-05-15T20:33:57.978Z,13.57
2023-05-15T20:36:28.455Z,13.77
2023-05-15T20:38:56.080Z,13.66
2023-05-15T20:41:23.314Z,13.55
2023-05-15T20:43:50.757Z,13.48
2023-05-15T20:46:17.910Z,13.22
2023-05-15T20:48:45.050Z,13.23
2023-05-15T20:51:11.941Z,12.98
2023-05-15T20:53:38.806Z,12.90
2023-05-15T20:56:05.842Z,12.43
2023-05-15T20:58:33.499Z,12.65
2023-05-15T21:01:03.386Z,12.67
2023-05-15T21:03:30.602Z,12.50
2023-05-15T21:05:57.794Z,12.68
2023-05-15T21:08:24.887Z,12.56
2023-05-15T21:10:53.340Z,12.53
2023-05-15T21:13:20.356Z,12.45
2023-05-15T21:15:47.485Z,12.58
2023-05-15T21:18:14.414Z,12.38
2023-05-15T21:20:41.970Z,12.57
2023-05-15T21:23:08.975Z,12.69
2023-05-15T21:25:37.972Z,12.83
2023-05-15T21:28:05.051Z,12.82
2023-05-15T21:30:32.146Z,12.60
2023-05-15T21:32:59.378Z,12.75
2023-05-15T21:35:29.111Z,12.70
2023-05-15T21:37:56.111Z,12.47
2023-05-15T21:40:23.295Z,12.07
2023-05-15T21:42:50.202Z,12.31
2023-05-15T21:45:17.689Z,12.39
2023-05-15T21:47:44.664Z,12.29
2023-05-15T21:50:11.717Z,12.38
2023-05-15T21:52:38.699Z,12.37
2023-05-15T21:55:06.217Z,12.43
2023-05-15T21:57:33.154Z,12.79
2023-05-15T22:00:00.208Z,12.64
2023-05-15T22:02:27.257Z,12.00
2023-05-15T22:04:54.180Z,11.87
2023-05-15T22:07:21.046Z,11.94
2023-05-15T22:09:47.909Z,11.95
2023-05-15T22:12:14.783Z,12.06
2023-05-15T22:14:57.099Z,12.16
2023-05-15T22:17:27.465Z,12.14
2023-05-15T22:19:54.718Z,12.19
2023-05-15T22:22:21.634Z,11.99
2023-05-15T22:24:48.502Z,12.06
2023-05-15T22:27:16.984Z,11.52
2023-05-15T22:29:43.880Z,11.73
2023-05-15T22:32:10.917Z,11.27
2023-05-15T22:34:38.456Z,11.23
2023-05-15T22:37:05.625Z,11.23
2023-05-15T22:39:33.058Z,11.30
2023-05-15T22:41:59.942Z,11.30
2023-05-15T22:44:26.871Z,11.29
2023-05-15T22:46:55.987Z,11.23
2023-05-15T22:49:26.672Z,11.12
2023-05-15T22:51:55.568Z,11.18
2023-05-15T22:54:23.563Z,10.93
2023-05-15T22:56:54.218Z,10.84
2023-05-15T22:59:21.850Z,10.93
2023-05-15T23:01:49.421Z,10.76
2023-05-15T23:04:17.503Z,10.70
2023-05-15T23:06:44.755Z,10.76
2023-05-15T23:09:14.439Z,10.74
2023-05-15T23:11:41.385Z,10.39
2023-05-15T23:14:08.611Z,10.51
2023-05-15T23:16:36.185Z,10.50
2023-05-15T23:19:03.373Z,10.33
2023-05-15T23:21:30.383Z,10.42
2023-05-15T23:24:00.577Z,10.30
2023-05-15T23:26:27.758Z,10.23
2023-05-15T23:28:54.619Z,10.45
2023-05-15T23:31:21.713Z,10.32
2023-05-15T23:33:48.669Z,10.29
2023-05-15T23:36:15.548Z,10.37
2023-05-15T23:38:42.466Z,10.21
2023-05-15T23:41:09.432Z,10.11
2023-05-15T23:43:36.338Z,10.18
2023-05-15T23:46:03.564Z,10.11
2023-05-15T23:48:31.887Z,10.02
2023-05-15T23:50:58.968Z,10.15
2023-05-15T23:53:26.022Z,9.97
2023-05-15T23:55:53.817Z,9.82
2023-05-15T23:58:21.594Z,9.76
